Time;durP1;ratioP1;P1;durP2;ratioP2;P2;SDS_P1;SDS_P2;PMS_P1;PMS_P2;Temp;Humidity;BMP_temperature;BMP_pressure;BME280_temperature;BME280_humidity;BME280_pressure;Samples;Min_cycle;Max_cycle;Signal;HPM_P1;HPM_P2
2023/06/19 00:02:25;;;;;;;4.50;3.95;;;24.70;96.70;;;;;;4920788;29;20060;-70
2023/06/19 00:04:54;;;;;;;5.90;4.05;;;24.60;96.70;;;;;;4931473;28;20075;-70
2023/06/19 00:07:22;;;;;;;5.28;4.30;;;24.60;96.70;;;;;;4926240;29;20047;-70
2023/06/19 00:09:50;;;;;;;5.07;4.22;;;24.70;96.70;;;;;;4926811;29;20050;-70
2023/06/19 00:12:28;;;;;;;4.97;4.22;;;24.60;96.70;;;;;;4925122;29;20154;-69
2023/06/19 00:14:57;;;;;;;4.93;4.10;;;24.60;96.70;;;;;;4927759;29;20130;-68
2023/06/19 00:17:27;;;;;;;4.57;4.10;;;24.40;96.70;;;;;;4934168;29;20052;-68
2023/06/19 00:19:55;;;;;;;4.57;3.83;;;24.30;96.70;;;;;;4934210;29;20493;-68
2023/06/19 00:22:24;;;;;;;4.80;4.40;;;24.40;96.70;;;;;;4930098;29;20065;-69
2023/06/19 00:24:53;;;;;;;8.20;4.20;;;24.50;96.70;;;;;;4917751;29;20135;-68
2023/06/19 00:27:24;;;;;;;5.03;4.47;;;24.40;96.70;;;;;;4926786;29;20039;-68
2023/06/19 00:29:52;;;;;;;5.07;3.90;;;24.30;96.70;;;;;;4931188;28;20069;-68
2023/06/19 00:32:22;;;;;;;4.55;4.13;;;24.40;96.70;;;;;;4915965;29;20036;-68
2023/06/19 00:34:50;;;;;;;4.85;4.00;;;24.50;96.70;;;;;;4928863;29;20046;-68
2023/06/19 00:37:18;;;;;;;5.75;4.47;;;24.50;96.70;;;;;;4929774;29;20042;-68
2023/06/19 00:39:46;;;;;;;5.40;4.30;;;24.50;96.70;;;;;;4933397;28;20293;-68
2023/06/19 00:42:14;;;;;;;5.35;4.82;;;24.40;96.70;;;;;;4932235;29;20044;-68
2023/06/19 00:44:43;;;;;;;7.07;4.50;;;24.40;96.70;;;;;;4927880;29;20053;-68
2023/06/19 00:47:11;;;;;;;4.55;4.15;;;24.40;96.70;;;;;;4933398;29;20469;-68
2023/06/19 00:49:41;;;;;;;4.47;3.67;;;24.40;96.70;;;;;;4932230;28;20145;-68
2023/06/19 00:52:09;;;;;;;5.35;4.85;;;24.30;96.70;;;;;;4930814;29;20050;-68
2023/06/19 00:54:39;;;;;;;6.97;4.65;;;24.30;96.70;;;;;;4928256;28;20070;-68
2023/06/19 00:57:08;;;;;;;6.18;4.18;;;24.20;96.70;;;;;;4929194;29;20397;-69
2023/06/19 00:59:36;;;;;;;8.43;4.32;;;24.20;96.70;;;;;;4933753;28;20047;-69
2023/06/19 01:02:05;;;;;;;7.18;4.65;;;24.10;96.70;;;;;;4931151;29;20504;-69
2023/06/19 01:04:33;;;;;;;5.60;4.55;;;24.00;96.70;;;;;;4914341;29;20106;-69
2023/06/19 01:07:09;;;;;;;6.28;4.25;;;24.00;96.70;;;;;;4927453;29;20054;-69
2023/06/19 01:09:44;;;;;;;6.30;4.05;;;24.10;96.70;;;;;;4914352;29;20062;-69
2023/06/19 01:12:16;;;;;;;6.45;4.57;;;24.10;96.70;;;;;;4930620;29;20140;-69
2023/06/19 01:14:52;;;;;;;5.97;4.40;;;24.10;96.70;;;;;;4920530;29;20028;-68
2023/06/19 01:17:21;;;;;;;4.82;4.43;;;24.00;96.70;;;;;;4930037;29;20051;-68
2023/06/19 01:19:50;;;;;;;3.90;3.50;;;24.00;96.70;;;;;;4924049;29;20067;-68
2023/06/19 01:22:28;;;;;;;5.53;4.00;;;23.90;96.70;;;;;;4926347;29;20494;-68
2023/06/19 01:24:59;;;;;;;6.55;4.93;;;23.90;96.70;;;;;;4932758;29;20780;-69
2023/06/19 01:27:31;;;;;;;4.40;4.00;;;23.90;96.70;;;;;;4934033;29;20533;-69
2023/06/19 01:30:01;;;;;;;4.72;4.22;;;23.90;96.70;;;;;;4928936;29;20048;-69
2023/06/19 01:32:37;;;;;;;4.88;4.10;;;23.80;96.70;;;;;;4913447;29;20138;-69
2023/06/19 01:35:09;;;;;;;5.47;4.00;;;23.80;96.70;;;;;;4914772;29;20047;-69
2023/06/19 01:37:40;;;;;;;4.70;3.92;;;23.80;96.70;;;;;;4911674;29;20102;-69
2023/06/19 01:40:11;;;;;;;6.43;4.05;;;23.80;96.70;;;;;;4932601;29;20047;-69
2023/06/19 01:42:40;;;;;;;5.82;3.67;;;23.80;96.70;;;;;;4930591;29;20099;-68
2023/06/19 01:45:09;;;;;;;4.28;3.40;;;23.80;96.70;;;;;;4928843;29;20145;-68
2023/06/19 01:47:37;;;;;;;4.20;3.80;;;23.80;96.70;;;;;;4931585;29;20055;-68
2023/06/19 01:50:07;;;;;;;4.55;4.07;;;23.80;96.70;;;;;;4935362;28;20054;-68
2023/06/19 01:52:36;;;;;;;6.90;4.22;;;23.60;96.70;;;;;;4915117;29;20690;-68
2023/06/19 01:55:07;;;;;;;4.80;3.50;;;23.40;96.70;;;;;;4917047;29;20674;-69
2023/06/19 01:57:36;;;;;;;4.68;3.45;;;23.50;96.70;;;;;;4896853;29;20062;-69
2023/06/19 02:00:07;;;;;;;5.65;3.65;;;23.40;96.70;;;;;;4912458;29;20040;-69
2023/06/19 02:02:40;;;;;;;4.65;4.07;;;23.50;96.70;;;;;;4926017;29;20043;-69
2023/06/19 02:05:08;;;;;;;4.40;4.00;;;23.60;96.70;;;;;;4929110;28;20130;-69
2023/06/19 02:07:36;;;;;;;5.97;4.10;;;23.60;96.70;;;;;;4936675;29;20330;-69
2023/06/19 02:10:07;;;;;;;5.47;3.75;;;23.70;96.70;;;;;;4919514;29;20063;-69
2023/06/19 02:12:36;;;;;;;5.53;4.00;;;23.60;96.70;;;;;;4927008;29;20110;-69
2023/06/19 02:15:04;;;;;;;6.60;4.10;;;23.60;96.70;;;;;;4927904;28;20039;-69
2023/06/19 02:17:33;;;;;;;4.88;4.38;;;23.50;96.70;;;;;;4912111;29;20079;-68
2023/06/19 02:20:07;;;;;;;5.25;4.50;;;23.40;96.70;;;;;;4924762;29;20573;-69
2023/06/19 02:22:35;;;;;;;6.05;4.53;;;23.30;96.70;;;;;;4931634;29;20561;-69
2023/06/19 02:25:06;;;;;;;5.80;4.25;;;23.20;96.70;;;;;;4932428;28;20044;-67
2023/06/19 02:27:35;;;;;;;7.40;4.00;;;23.20;96.70;;;;;;4932280;29;20074;-68
2023/06/19 02:30:04;;;;;;;6.85;4.32;;;23.30;96.70;;;;;;4922037;29;20070;-67
2023/06/19 02:32:33;;;;;;;5.50;4.40;;;23.30;96.70;;;;;;4930730;29;20043;-67
2023/06/19 02:35:03;;;;;;;6.00;4.70;;;23.20;96.70;;;;;;4936300;29;20086;-68
2023/06/19 02:37:35;;;;;;;8.18;4.15;;;23.20;96.70;;;;;;4936184;28;20533;-69
2023/06/19 02:40:06;;;;;;;5.15;4.45;;;23.20;96.70;;;;;;4922241;29;20051;-69
2023/06/19 02:42:34;;;;;;;7.35;4.63;;;23.10;96.70;;;;;;4931833;29;20134;-69
2023/06/19 02:45:03;;;;;;;4.60;4.20;;;23.20;96.70;;;;;;4921451;29;20114;-68
2023/06/19 02:47:31;;;;;;;4.72;3.55;;;23.20;96.70;;;;;;4935801;29;20059;-69
2023/06/19 02:50:00;;;;;;;5.60;4.32;;;23.10;96.70;;;;;;4934647;29;20138;-69
2023/06/19 02:52:28;;;;;;;4.45;4.03;;;23.20;96.70;;;;;;4924904;29;20147;-68
2023/06/19 02:54:56;;;;;;;4.55;3.45;;;23.20;96.70;;;;;;4937116;29;20505;-68
2023/06/19 02:57:26;;;;;;;5.28;3.45;;;23.20;96.70;;;;;;4932535;29;20062;-69
2023/06/19 02:59:54;;;;;;;5.63;3.83;;;23.20;96.70;;;;;;4913597;29;20482;-68
2023/06/19 03:02:22;;;;;;;5.55;3.90;;;23.20;96.70;;;;;;4916978;29;20406;-67
2023/06/19 03:04:50;;;;;;;5.10;3.63;;;23.20;96.70;;;;;;4914368;29;20052;-67
2023/06/19 03:07:18;;;;;;;7.78;4.20;;;23.20;96.70;;;;;;4899816;29;20051;-67
2023/06/19 03:09:46;;;;;;;4.40;4.00;;;23.20;96.70;;;;;;4902565;29;20044;-68
2023/06/19 03:12:14;;;;;;;4.57;4.18;;;23.20;96.70;;;;;;4912266;29;20052;-68
2023/06/19 03:14:45;;;;;;;5.10;4.10;;;23.20;96.70;;;;;;4901447;29;20055;-68
2023/06/19 03:17:14;;;;;;;4.88;4.13;;;23.20;96.70;;;;;;4917204;29;20433;-68
2023/06/19 03:19:42;;;;;;;6.75;4.35;;;23.20;96.70;;;;;;4912572;29;20048;-68
2023/06/19 03:22:11;;;;;;;5.10;4.32;;;23.10;96.70;;;;;;4896410;29;20517;-68
2023/06/19 03:24:39;;;;;;;6.35;3.50;;;23.00;96.70;;;;;;4915891;29;20039;-69
2023/06/19 03:27:29;;;;;;;4.72;3.85;;;23.00;96.70;;;;;;4915377;29;20285;-68
2023/06/19 03:29:58;;;;;;;7.28;3.58;;;23.00;96.70;;;;;;4916763;29;20470;-68
2023/06/19 03:32:35;;;;;;;5.40;3.78;;;23.00;96.70;;;;;;4912800;29;20051;-68
2023/06/19 03:35:07;;;;;;;5.25;3.60;;;23.00;96.70;;;;;;4911577;29;20572;-68
2023/06/19 03:37:40;;;;;;;6.38;4.40;;;23.00;96.70;;;;;;4919197;29;20604;-68
2023/06/19 03:40:13;;;;;;;3.92;3.53;;;22.90;96.70;;;;;;4901271;29;20096;-68
2023/06/19 03:42:44;;;;;;;6.15;3.88;;;23.00;96.70;;;;;;4910858;29;20048;-68
2023/06/19 03:45:15;;;;;;;4.95;4.47;;;23.00;96.70;;;;;;4915450;29;20074;-68
2023/06/19 03:47:43;;;;;;;4.80;3.55;;;23.00;96.70;;;;;;4912802;29;20126;-67
2023/06/19 03:50:11;;;;;;;4.95;4.43;;;23.00;96.70;;;;;;4910840;29;20514;-68
2023/06/19 03:53:01;;;;;;;4.50;4.10;;;23.00;96.70;;;;;;4918053;29;21378;-68
2023/06/19 03:55:29;;;;;;;5.47;3.72;;;22.80;96.70;;;;;;4897649;29;20482;-68
2023/06/19 03:57:57;;;;;;;6.28;4.60;;;22.80;96.70;;;;;;4900543;29;20079;-68
2023/06/19 04:00:27;;;;;;;7.53;4.30;;;22.90;96.70;;;;;;4914028;29;20629;-68
2023/06/19 04:02:56;;;;;;;4.90;4.45;;;22.90;96.70;;;;;;4898744;29;20048;-68
2023/06/19 04:05:25;;;;;;;4.88;4.25;;;22.80;96.70;;;;;;4894724;29;20060;-68
2023/06/19 04:07:53;;;;;;;4.65;4.10;;;22.80;96.70;;;;;;4915147;29;20036;-69
2023/06/19 04:10:22;;;;;;;5.65;3.58;;;22.80;96.70;;;;;;4914292;29;20529;-68
2023/06/19 04:12:52;;;;;;;4.60;3.80;;;22.80;96.70;;;;;;4914930;29;20078;-68
2023/06/19 04:15:20;;;;;;;5.57;4.60;;;22.70;96.70;;;;;;4910047;29;20103;-68
2023/06/19 04:17:49;;;;;;;5.78;4.15;;;22.80;96.70;;;;;;4914386;29;20052;-69
2023/06/19 04:20:18;;;;;;;5.55;4.10;;;22.80;96.70;;;;;;4913048;29;20416;-68
2023/06/19 04:22:47;;;;;;;5.65;4.45;;;22.90;96.70;;;;;;4919940;29;20040;-68
2023/06/19 04:25:15;;;;;;;5.43;4.35;;;22.80;96.70;;;;;;4914084;29;20043;-68
2023/06/19 04:27:44;;;;;;;5.25;3.97;;;22.70;96.70;;;;;;4913641;29;20071;-68
2023/06/19 04:30:13;;;;;;;6.40;4.32;;;22.70;96.70;;;;;;4909057;29;20534;-68
2023/06/19 04:32:41;;;;;;;5.40;4.20;;;22.70;96.70;;;;;;4916323;29;20048;-68
2023/06/19 04:35:11;;;;;;;7.53;4.43;;;22.80;96.70;;;;;;4902442;29;20539;-68
2023/06/19 04:37:39;;;;;;;6.35;4.43;;;22.80;96.70;;;;;;4912746;29;20169;-68
2023/06/19 04:40:08;;;;;;;8.15;4.22;;;22.80;96.70;;;;;;4916073;29;20142;-68
2023/06/19 04:42:38;;;;;;;5.20;4.25;;;22.70;96.70;;;;;;4919954;29;20426;-69
2023/06/19 04:45:07;;;;;;;6.47;4.20;;;22.80;96.70;;;;;;4911589;29;20070;-68
2023/06/19 04:47:35;;;;;;;6.18;4.53;;;22.80;96.70;;;;;;4910948;29;20510;-68
2023/06/19 04:50:21;;;;;;;5.13;4.20;;;22.70;96.70;;;;;;4916664;29;20119;-68
2023/06/19 04:52:50;;;;;;;4.65;4.13;;;22.80;96.70;;;;;;4917203;29;20074;-68
2023/06/19 04:55:19;;;;;;;7.05;4.30;;;22.70;96.70;;;;;;4897565;29;20047;-68
2023/06/19 04:57:47;;;;;;;6.03;4.47;;;22.60;96.70;;;;;;4906040;29;20052;-68
2023/06/19 05:00:18;;;;;;;10.50;7.22;;;22.70;96.70;;;;;;4909898;29;20494;-68
2023/06/19 05:02:48;;;;;;;15.73;10.35;;;22.80;96.70;;;;;;4904875;29;20039;-68
2023/06/19 05:05:16;;;;;;;13.30;8.07;;;22.90;96.70;;;;;;4911102;29;20151;-68
2023/06/19 05:07:46;;;;;;;10.65;8.50;;;22.80;96.70;;;;;;4905611;29;20059;-68
2023/06/19 05:10:14;;;;;;;9.00;7.60;;;22.80;96.70;;;;;;4910464;29;20047;-68
2023/06/19 05:12:42;;;;;;;10.48;6.90;;;22.80;96.70;;;;;;4908171;29;20637;-68
2023/06/19 05:15:11;;;;;;;9.32;6.38;;;22.80;96.70;;;;;;4913237;29;20128;-68
2023/06/19 05:17:39;;;;;;;9.50;6.75;;;22.80;96.70;;;;;;4911726;29;20044;-68
2023/06/19 05:20:09;;;;;;;9.57;7.50;;;22.90;96.70;;;;;;4905145;29;20040;-68
2023/06/19 05:22:37;;;;;;;10.85;8.43;;;22.80;96.70;;;;;;4904837;29;20044;-68
2023/06/19 05:25:08;;;;;;;11.55;9.38;;;22.90;96.70;;;;;;4910268;29;20070;-67
2023/06/19 05:27:36;;;;;;;16.15;10.68;;;23.00;96.70;;;;;;4906564;29;20048;-68
2023/06/19 05:30:05;;;;;;;14.27;11.13;;;22.80;96.70;;;;;;4911712;29;20047;-67
2023/06/19 05:32:33;;;;;;;14.10;10.75;;;22.80;96.70;;;;;;4908450;29;20703;-68
2023/06/19 05:35:01;;;;;;;11.45;10.15;;;22.90;96.70;;;;;;4907624;29;20186;-67
2023/06/19 05:37:30;;;;;;;12.93;8.95;;;22.80;96.70;;;;;;4908569;29;20066;-67
2023/06/19 05:39:58;;;;;;;13.60;8.73;;;22.90;96.70;;;;;;4895867;29;20056;-69
2023/06/19 05:42:27;;;;;;;9.07;7.60;;;23.00;96.70;;;;;;4905110;29;20107;-68
2023/06/19 05:44:55;;;;;;;9.07;7.00;;;23.00;96.70;;;;;;4909140;29;21478;-68
2023/06/19 05:47:25;;;;;;;8.57;7.07;;;23.00;96.70;;;;;;4912282;29;20582;-68
2023/06/19 05:49:54;;;;;;;7.85;6.95;;;23.10;96.70;;;;;;4907917;29;20059;-68
2023/06/19 05:52:21;;;;;;;11.43;7.57;;;23.10;96.70;;;;;;4903143;29;20044;-68
2023/06/19 05:54:49;;;;;;;10.52;6.95;;;23.00;96.70;;;;;;4908254;29;20146;-68
2023/06/19 05:57:21;;;;;;;7.30;5.82;;;22.90;96.70;;;;;;4911915;29;20489;-68
2023/06/19 05:59:51;;;;;;;7.03;5.10;;;22.90;96.70;;;;;;4931964;28;20054;-68
2023/06/19 06:02:21;;;;;;;11.60;5.07;;;22.90;96.70;;;;;;4933316;29;20125;-68
2023/06/19 06:05:06;;;;;;;6.00;4.90;;;22.90;96.70;;;;;;4928593;28;20127;-68
2023/06/19 06:07:34;;;;;;;6.25;4.28;;;22.90;96.70;;;;;;4930334;29;20047;-68
2023/06/19 06:10:05;;;;;;;6.35;4.35;;;23.00;96.70;;;;;;4916914;29;20123;-69
2023/06/19 06:12:34;;;;;;;7.32;4.22;;;23.00;96.70;;;;;;4934241;29;20127;-69
2023/06/19 06:15:05;;;;;;;5.85;4.13;;;23.10;96.70;;;;;;4933717;28;20055;-69
2023/06/19 06:17:35;;;;;;;5.25;3.97;;;23.10;96.70;;;;;;4936203;29;20039;-68
2023/06/19 06:20:49;;;;;;;5.18;3.92;;;23.10;96.70;;;;;;4871461;29;20098;-69
2023/06/19 06:23:17;;;;;;;5.93;4.47;;;23.10;96.70;;;;;;4870756;29;20068;-68
2023/06/19 06:25:46;;;;;;;6.45;4.47;;;23.20;96.70;;;;;;4870755;29;20068;-69
2023/06/19 06:28:33;;;;;;;5.55;4.68;;;23.20;96.70;;;;;;4866773;29;20132;-69
2023/06/19 06:31:08;;;;;;;5.43;4.82;;;23.30;96.70;;;;;;4867148;29;20069;-69
2023/06/19 06:33:37;;;;;;;6.30;4.67;;;23.40;96.70;;;;;;4877211;29;20080;-68
2023/06/19 06:36:05;;;;;;;6.38;5.30;;;23.50;96.70;;;;;;4875504;29;20143;-69
2023/06/19 06:38:36;;;;;;;5.72;4.60;;;23.50;96.70;;;;;;4870919;29;20142;-69
2023/06/19 06:41:04;;;;;;;19.02;13.57;;;23.50;96.70;;;;;;4875587;29;20099;-69
2023/06/19 06:43:32;;;;;;;17.35;13.45;;;23.40;96.70;;;;;;4872964;29;20605;-69
2023/06/19 06:46:00;;;;;;;15.10;9.88;;;23.30;96.70;;;;;;4871247;29;20040;-68
2023/06/19 06:48:30;;;;;;;10.43;8.13;;;23.30;96.70;;;;;;4871873;29;20066;-69
2023/06/19 06:51:01;;;;;;;10.75;7.72;;;23.30;96.70;;;;;;4872808;29;20127;-69
2023/06/19 06:53:31;;;;;;;9.45;7.80;;;23.40;96.70;;;;;;4866911;29;20686;-69
2023/06/19 06:55:59;;;;;;;8.93;7.80;;;23.60;96.70;;;;;;4879411;29;20635;-69
2023/06/19 06:58:28;;;;;;;10.15;7.40;;;23.70;96.70;;;;;;4874985;29;20073;-70
2023/06/19 07:00:56;;;;;;;8.77;6.70;;;23.80;96.70;;;;;;4855241;29;20573;-71
2023/06/19 07:03:25;;;;;;;8.32;5.88;;;23.90;96.70;;;;;;4876511;29;20603;-70
2023/06/19 07:05:54;;;;;;;8.65;6.32;;;23.90;96.70;;;;;;4925211;29;20086;-70
2023/06/19 07:08:23;;;;;;;8.50;6.32;;;24.00;96.70;;;;;;4926389;29;20055;-69
2023/06/19 07:10:51;;;;;;;11.75;7.18;;;24.10;96.70;;;;;;4927983;29;20042;-71
2023/06/19 07:13:20;;;;;;;8.05;6.60;;;24.20;96.70;;;;;;4926513;29;20107;-70
2023/06/19 07:15:48;;;;;;;6.93;6.00;;;24.30;96.70;;;;;;4920003;29;20590;-70
2023/06/19 07:18:16;;;;;;;7.28;6.05;;;24.30;96.70;;;;;;4909846;29;20047;-70
2023/06/19 07:20:44;;;;;;;6.65;5.85;;;24.40;96.70;;;;;;4926497;29;20090;-70
2023/06/19 07:23:14;;;;;;;9.23;6.85;;;24.60;96.70;;;;;;4922373;29;20147;-68
2023/06/19 07:25:43;;;;;;;9.38;6.75;;;24.70;96.70;;;;;;4926538;28;20058;-67
2023/06/19 07:28:11;;;;;;;7.25;6.28;;;24.70;96.70;;;;;;4919760;29;20518;-68
2023/06/19 07:30:39;;;;;;;8.00;6.70;;;24.90;96.70;;;;;;4926939;29;20051;-68
2023/06/19 07:33:10;;;;;;;8.80;6.68;;;25.00;96.70;;;;;;4926578;29;20126;-69
2023/06/19 07:35:44;;;;;;;7.85;6.35;;;25.10;96.70;;;;;;4923022;29;20047;-69
2023/06/19 07:38:13;;;;;;;7.35;6.45;;;25.20;96.70;;;;;;4932878;29;20569;-69
2023/06/19 07:40:44;;;;;;;8.25;6.15;;;25.30;96.70;;;;;;4924254;29;20048;-70
2023/06/19 07:43:14;;;;;;;7.63;6.85;;;25.30;96.70;;;;;;4925429;29;20040;-69
2023/06/19 07:45:41;;;;;;;7.85;6.60;;;25.40;96.70;;;;;;4925806;29;20071;-69
2023/06/19 07:48:10;;;;;;;9.15;6.10;;;25.40;96.70;;;;;;4908248;29;20562;-69
2023/06/19 07:50:38;;;;;;;8.13;5.57;;;25.40;96.70;;;;;;4924597;29;20176;-71
2023/06/19 07:53:08;;;;;;;9.07;6.35;;;25.40;96.70;;;;;;4927384;29;20398;-69
2023/06/19 07:55:38;;;;;;;8.57;6.40;;;25.30;96.70;;;;;;4920322;29;20043;-69
2023/06/19 07:58:06;;;;;;;6.25;5.65;;;25.40;96.70;;;;;;4929065;29;20470;-70
2023/06/19 08:00:35;;;;;;;8.02;6.70;;;25.40;96.70;;;;;;4912539;29;20080;-69
2023/06/19 08:03:04;;;;;;;8.02;6.07;;;25.30;96.70;;;;;;4925479;29;20047;-69
2023/06/19 08:05:32;;;;;;;6.65;5.95;;;25.40;96.70;;;;;;4922729;29;20052;-69
2023/06/19 08:08:01;;;;;;;7.05;6.35;;;25.40;96.70;;;;;;4927040;29;20046;-69
2023/06/19 08:10:29;;;;;;;9.70;6.35;;;25.40;96.70;;;;;;4924169;29;20143;-69
2023/06/19 08:12:59;;;;;;;8.18;6.20;;;25.50;96.70;;;;;;4926375;29;20142;-68
2023/06/19 08:15:27;;;;;;;7.63;5.28;;;25.60;96.70;;;;;;4900644;29;20127;-68
2023/06/19 08:17:55;;;;;;;6.70;4.80;;;25.60;96.70;;;;;;4925206;29;20066;-69
2023/06/19 08:20:26;;;;;;;5.10;4.07;;;25.70;96.70;;;;;;4924296;29;20039;-68
2023/06/19 08:22:56;;;;;;;5.10;4.30;;;25.80;96.70;;;;;;4924733;29;20043;-69
2023/06/19 08:25:25;;;;;;;4.97;4.10;;;26.00;96.70;;;;;;4928831;29;20051;-68
2023/06/19 08:27:53;;;;;;;7.70;4.60;;;26.00;96.70;;;;;;4925253;29;20051;-68
2023/06/19 08:30:23;;;;;;;4.45;4.10;;;26.00;96.70;;;;;;4925688;29;20047;-68
2023/06/19 08:32:51;;;;;;;4.32;3.90;;;26.10;96.70;;;;;;4924807;29;21462;-69
2023/06/19 08:35:24;;;;;;;4.25;3.85;;;26.20;96.70;;;;;;4924970;29;20051;-68
2023/06/19 08:38:01;;;;;;;8.32;4.45;;;26.20;96.70;;;;;;4924862;29;20095;-68
2023/06/19 08:40:29;;;;;;;5.28;4.78;;;26.30;96.70;;;;;;4925084;29;20079;-69
2023/06/19 08:42:58;;;;;;;4.80;4.25;;;26.50;96.70;;;;;;4925444;29;20050;-68
2023/06/19 08:45:28;;;;;;;5.15;3.95;;;26.50;96.70;;;;;;4925672;29;20083;-68
2023/06/19 08:47:59;;;;;;;6.10;3.95;;;26.40;96.70;;;;;;4925994;29;20087;-68
2023/06/19 08:50:27;;;;;;;5.70;4.22;;;26.40;96.70;;;;;;4925365;29;20047;-68
2023/06/19 08:52:57;;;;;;;4.72;3.88;;;26.50;96.70;;;;;;4924060;29;20071;-70
2023/06/19 08:55:25;;;;;;;5.25;4.50;;;26.60;96.70;;;;;;4925330;29;20047;-68
2023/06/19 08:57:53;;;;;;;4.68;4.28;;;26.60;96.70;;;;;;4925680;29;20058;-69
2023/06/19 09:00:26;;;;;;;5.93;3.95;;;26.70;96.70;;;;;;4908624;29;20397;-69
2023/06/19 09:03:02;;;;;;;4.10;3.58;;;26.80;96.70;;;;;;4908490;29;20060;-68
2023/06/19 09:05:43;;;;;;;4.03;3.72;;;26.90;96.70;;;;;;4925589;29;20413;-68
2023/06/19 09:08:15;;;;;;;5.90;3.78;;;26.90;96.70;;;;;;4924677;29;20044;-69
2023/06/19 09:10:53;;;;;;;4.50;3.70;;;26.90;96.70;;;;;;4924011;29;20071;-69
2023/06/19 09:13:21;;;;;;;5.90;3.65;;;27.00;96.70;;;;;;4924747;29;20043;-69
2023/06/19 09:15:59;;;;;;;5.25;3.60;;;27.00;96.70;;;;;;4923809;29;20434;-69
2023/06/19 09:18:30;;;;;;;4.50;4.10;;;27.10;96.70;;;;;;4925332;29;20577;-70
2023/06/19 09:21:00;;;;;;;5.80;3.97;;;27.10;96.70;;;;;;4925715;29;20083;-70
2023/06/19 09:23:31;;;;;;;3.90;3.35;;;27.30;96.70;;;;;;4908218;29;20063;-70
2023/06/19 09:26:04;;;;;;;4.00;3.60;;;27.30;96.70;;;;;;4921202;29;20047;-70
2023/06/19 09:28:42;;;;;;;6.47;4.22;;;27.50;96.70;;;;;;4909913;29;20048;-70
2023/06/19 09:31:12;;;;;;;14.38;4.72;;;27.60;96.70;;;;;;4925598;29;20047;-69
2023/06/19 09:33:43;;;;;;;6.03;4.25;;;27.60;96.70;;;;;;4924982;29;20054;-68
2023/06/19 09:36:11;;;;;;;5.03;4.22;;;27.60;96.70;;;;;;4924515;29;20122;-69
2023/06/19 09:38:42;;;;;;;5.22;4.30;;;27.60;96.70;;;;;;4925427;29;20052;-69
2023/06/19 09:41:13;;;;;;;5.28;3.97;;;27.70;96.70;;;;;;4908582;29;20410;-68
2023/06/19 09:43:43;;;;;;;4.68;3.92;;;27.90;96.70;;;;;;4925020;29;20048;-69
2023/06/19 09:46:14;;;;;;;5.72;4.32;;;28.10;96.70;;;;;;4923133;29;20051;-69
2023/06/19 09:48:48;;;;;;;6.50;4.63;;;28.30;96.70;;;;;;4908294;29;20457;-69
2023/06/19 09:51:19;;;;;;;4.95;4.10;;;28.20;96.70;;;;;;4925402;29;20142;-69
2023/06/19 09:53:52;;;;;;;4.93;4.32;;;28.10;96.70;;;;;;4924026;29;20078;-69
2023/06/19 09:56:21;;;;;;;7.43;4.70;;;28.00;96.70;;;;;;4928045;29;20083;-70
2023/06/19 09:58:53;;;;;;;5.65;4.63;;;28.10;96.70;;;;;;4924077;29;20083;-70
2023/06/19 10:01:22;;;;;;;4.07;3.72;;;28.10;96.70;;;;;;4925145;29;20462;-70
2023/06/19 10:04:03;;;;;;;13.48;4.50;;;28.20;96.70;;;;;;4924865;29;20043;-68
2023/06/19 10:06:33;;;;;;;4.95;4.13;;;28.40;96.70;;;;;;4924759;29;20166;-68
2023/06/19 10:09:09;;;;;;;7.75;3.47;;;28.50;96.70;;;;;;4924493;29;20042;-69
2023/06/19 10:11:50;;;;;;;6.28;3.70;;;28.60;96.70;;;;;;4923882;29;20043;-69
2023/06/19 10:14:19;;;;;;;4.22;3.83;;;28.70;96.70;;;;;;4924851;29;20094;-68
2023/06/19 10:16:56;;;;;;;7.45;3.95;;;28.80;96.70;;;;;;4908025;29;20043;-68
2023/06/19 10:19:25;;;;;;;4.65;3.50;;;28.90;96.70;;;;;;4917361;29;20083;-68
2023/06/19 10:21:55;;;;;;;4.22;3.28;;;28.70;96.70;;;;;;4923624;29;20150;-69
2023/06/19 10:24:25;;;;;;;3.83;3.50;;;28.60;96.70;;;;;;4926991;29;20512;-68
2023/06/19 10:27:05;;;;;;;4.43;3.10;;;28.60;96.70;;;;;;4923321;29;20159;-69
2023/06/19 10:29:43;;;;;;;4.47;3.38;;;28.60;96.70;;;;;;4924666;29;20047;-68
2023/06/19 10:32:25;;;;;;;3.60;3.15;;;28.90;96.70;;;;;;4923265;29;20044;-68
2023/06/19 10:35:11;;;;;;;4.25;3.38;;;28.90;96.70;;;;;;4924404;29;20067;-67
2023/06/19 10:37:40;;;;;;;5.05;3.55;;;29.10;96.70;;;;;;4925514;29;20040;-68
2023/06/19 10:40:10;;;;;;;5.78;3.80;;;29.20;96.70;;;;;;4924038;29;20383;-68
2023/06/19 10:42:38;;;;;;;4.57;3.70;;;29.30;96.70;;;;;;4923284;29;20051;-69
2023/06/19 10:45:12;;;;;;;3.95;3.55;;;29.30;96.70;;;;;;4923227;29;20047;-68
2023/06/19 10:47:40;;;;;;;3.38;3.08;;;29.30;96.70;;;;;;4920735;29;20048;-68
2023/06/19 10:50:14;;;;;;;3.67;3.38;;;29.50;96.70;;;;;;4925147;29;20040;-68
2023/06/19 10:52:44;;;;;;;3.40;3.10;;;29.60;96.70;;;;;;4907865;29;20054;-69
2023/06/19 10:55:12;;;;;;;4.22;3.20;;;29.60;96.70;;;;;;4925038;29;20423;-68
2023/06/19 10:57:44;;;;;;;4.40;3.88;;;29.70;96.70;;;;;;4904935;29;20056;-68
2023/06/19 11:00:23;;;;;;;3.58;3.15;;;29.70;96.70;;;;;;4903015;29;20051;-68
2023/06/19 11:02:52;;;;;;;3.70;3.35;;;29.80;96.70;;;;;;4928134;29;20052;-68
2023/06/19 11:05:23;;;;;;;4.80;3.40;;;30.10;96.70;;;;;;4926159;29;20039;-68
2023/06/19 11:07:53;;;;;;;4.68;3.17;;;30.30;96.70;;;;;;4927502;29;20058;-68
2023/06/19 11:10:22;;;;;;;5.65;3.13;;;30.40;96.70;;;;;;4927317;29;20040;-68
2023/06/19 11:12:54;;;;;;;4.30;3.30;;;30.40;96.70;;;;;;4926504;29;20156;-68
2023/06/19 11:15:29;;;;;;;3.53;3.10;;;30.30;96.70;;;;;;4922453;29;20059;-69
2023/06/19 11:17:58;;;;;;;4.13;3.03;;;30.50;96.70;;;;;;4925702;29;20044;-68
2023/06/19 11:20:28;;;;;;;4.68;3.50;;;30.50;96.70;;;;;;4926041;29;20083;-68
2023/06/19 11:22:58;;;;;;;4.97;3.95;;;30.50;96.70;;;;;;4927175;29;21045;-68
2023/06/19 11:25:35;;;;;;;4.80;2.85;;;30.60;96.70;;;;;;4925044;29;20055;-68
2023/06/19 11:28:29;;;;;;;5.93;3.30;;;30.80;96.70;;;;;;4926028;29;20095;-68
2023/06/19 11:31:05;;;;;;;4.70;3.33;;;30.70;96.70;;;;;;4924434;29;20040;-68
2023/06/19 11:33:33;;;;;;;;;;;30.70;96.70;;;;;;4931163;29;20086;-68
2023/06/19 11:36:03;;;;;;;3.83;3.47;;;30.80;96.70;;;;;;4908415;29;19962;-68
2023/06/19 11:38:33;;;;;;;3.33;3.00;;;30.90;96.70;;;;;;4926769;29;20135;-68
2023/06/19 11:41:03;;;;;;;3.63;3.10;;;30.90;96.70;;;;;;4925525;29;20534;-68
2023/06/19 11:43:35;;;;;;;3.90;3.50;;;30.90;96.70;;;;;;4918925;29;20219;-68
2023/06/19 11:46:07;;;;;;;3.78;3.47;;;31.00;96.70;;;;;;4925474;29;20146;-68
2023/06/19 11:48:37;;;;;;;4.10;3.55;;;31.10;96.70;;;;;;4909612;29;20051;-68
2023/06/19 11:51:07;;;;;;;3.75;3.20;;;31.10;96.70;;;;;;4924643;29;20051;-69
2023/06/19 11:53:36;;;;;;;4.45;3.80;;;31.10;96.70;;;;;;4909944;29;20226;-69
2023/06/19 11:56:04;;;;;;;4.22;3.53;;;31.10;96.70;;;;;;4927155;29;20044;-69
2023/06/19 11:58:32;;;;;;;3.55;3.25;;;31.20;96.70;;;;;;4926838;29;20126;-69
2023/06/19 12:01:00;;;;;;;3.80;3.42;;;31.30;96.70;;;;;;4927391;29;20055;-69
2023/06/19 12:03:28;;;;;;;3.83;3.42;;;31.30;96.70;;;;;;4926254;29;20514;-69
2023/06/19 12:05:57;;;;;;;5.07;3.78;;;31.30;96.70;;;;;;4919067;29;20051;-69
2023/06/19 12:08:26;;;;;;;6.15;3.65;;;31.50;96.70;;;;;;4927143;29;20147;-69
2023/06/19 12:10:54;;;;;;;5.47;3.55;;;31.50;96.70;;;;;;4925886;29;20056;-69
2023/06/19 12:13:22;;;;;;;7.13;4.10;;;31.50;96.70;;;;;;4925238;29;20071;-69
2023/06/19 12:15:50;;;;;;;4.10;3.70;;;31.70;96.70;;;;;;4925244;29;20044;-69
2023/06/19 12:18:19;;;;;;;4.30;3.30;;;31.60;96.70;;;;;;4926634;29;20050;-69
2023/06/19 12:20:47;;;;;;;4.07;3.60;;;31.80;96.70;;;;;;4926359;29;20072;-69
2023/06/19 12:23:15;;;;;;;3.60;3.22;;;31.90;96.70;;;;;;4926520;29;20051;-69
2023/06/19 12:25:44;;;;;;;4.10;3.22;;;31.80;96.70;;;;;;4926231;29;20047;-69
2023/06/19 12:28:18;;;;;;;4.50;3.53;;;31.70;96.70;;;;;;4928823;29;20047;-69
2023/06/19 12:30:48;;;;;;;5.90;3.38;;;31.80;96.70;;;;;;4926198;29;20048;-69
2023/06/19 12:33:17;;;;;;;3.83;3.45;;;31.90;96.70;;;;;;4926899;29;20055;-69
2023/06/19 12:35:47;;;;;;;3.70;3.40;;;32.00;96.70;;;;;;4925814;29;20051;-69
2023/06/19 12:38:16;;;;;;;4.65;3.38;;;32.10;96.70;;;;;;4926460;29;20058;-69
2023/06/19 12:40:45;;;;;;;6.50;3.55;;;32.00;96.70;;;;;;4926077;29;20048;-70
2023/06/19 12:43:13;;;;;;;5.35;3.22;;;32.10;96.70;;;;;;4925067;29;20565;-69
2023/06/19 12:45:42;;;;;;;4.75;3.92;;;32.30;96.70;;;;;;4924424;29;20048;-69
2023/06/19 12:48:11;;;;;;;3.83;3.47;;;32.30;96.70;;;;;;4924682;29;20052;-69
2023/06/19 12:50:39;;;;;;;4.15;3.55;;;32.30;96.70;;;;;;4926070;29;20059;-69
2023/06/19 12:53:07;;;;;;;4.80;3.35;;;32.10;96.70;;;;;;4908622;29;20051;-69
2023/06/19 12:55:35;;;;;;;3.85;3.22;;;32.20;96.70;;;;;;4907755;29;20055;-69
2023/06/19 12:58:24;;;;;;;5.70;3.55;;;32.30;96.70;;;;;;4904181;29;20072;-69
2023/06/19 13:00:53;;;;;;;4.95;3.70;;;32.20;96.70;;;;;;4926728;29;20656;-69
2023/06/19 13:03:21;;;;;;;4.00;3.55;;;32.40;96.70;;;;;;4923336;29;20552;-69